sensor_id;sensor_type;location;lat;lon;timestamp;pressure;altitude;pressure_sealevel;temperature;humidity
21728;BME280;11026;50.560;17.852;2024-03-02T00:00:50;98833.75;;;9.87;100.00
21728;BME280;11026;50.560;17.852;2024-03-02T00:03:18;98845.25;;;9.86;100.00
21728;BME280;11026;50.560;17.852;2024-03-02T00:05:51;98850.44;;;9.88;100.00
21728;BME280;11026;50.560;17.852;2024-03-02T00:08:25;98851.63;;;9.82;100.00
21728;BME280;11026;50.560;17.852;2024-03-02T00:11:00;98848.59;;;9.72;100.00
21728;BME280;11026;50.560;17.852;2024-03-02T00:13:31;98859.38;;;9.68;100.00
21728;BME280;11026;50.560;17.852;2024-03-02T00:16:01;98857.03;;;9.61;100.00
21728;BME280;11026;50.560;17.852;2024-03-02T00:18:34;98860.72;;;9.59;100.00
21728;BME280;11026;50.560;17.852;2024-03-02T00:21:06;98869.03;;;9.51;100.00
21728;BME280;11026;50.560;17.852;2024-03-02T00:23:37;98856.75;;;9.50;100.00
21728;BME280;11026;50.560;17.852;2024-03-02T00:26:05;98865.44;;;9.52;100.00
21728;BME280;11026;50.560;17.852;2024-03-02T00:28:34;98858.69;;;9.47;100.00
21728;BME280;11026;50.560;17.852;2024-03-02T00:31:09;98855.34;;;9.43;100.00
21728;BME280;11026;50.560;17.852;2024-03-02T00:36:10;98857.53;;;9.35;100.00
21728;BME280;11026;50.560;17.852;2024-03-02T00:38:46;98864.50;;;9.36;100.00
21728;BME280;11026;50.560;17.852;2024-03-02T00:41:34;98862.72;;;9.36;100.00
21728;BME280;11026;50.560;17.852;2024-03-02T00:44:10;98867.91;;;9.38;100.00
21728;BME280;11026;50.560;17.852;2024-03-02T00:46:41;98861.63;;;9.41;100.00
21728;BME280;11026;50.560;17.852;2024-03-02T00:49:22;98859.84;;;9.41;100.00
21728;BME280;11026;50.560;17.852;2024-03-02T00:51:51;98866.81;;;9.42;100.00
21728;BME280;11026;50.560;17.852;2024-03-02T00:54:27;98860.91;;;9.37;100.00
21728;BME280;11026;50.560;17.852;2024-03-02T00:56:57;98860.53;;;9.45;100.00
21728;BME280;11026;50.560;17.852;2024-03-02T00:59:24;98864.88;;;9.46;100.00
21728;BME280;11026;50.560;17.852;2024-03-02T01:01:52;98855.03;;;9.49;100.00
21728;BME280;11026;50.560;17.852;2024-03-02T01:04:19;98858.31;;;9.54;100.00
21728;BME280;11026;50.560;17.852;2024-03-02T01:06:46;98860.31;;;9.49;100.00
21728;BME280;11026;50.560;17.852;2024-03-02T01:09:14;98853.66;;;9.59;100.00
21728;BME280;11026;50.560;17.852;2024-03-02T01:11:41;98856.75;;;9.50;100.00
21728;BME280;11026;50.560;17.852;2024-03-02T01:14:08;98850.31;;;9.56;100.00
21728;BME280;11026;50.560;17.852;2024-03-02T01:16:36;98850.69;;;9.66;100.00
21728;BME280;11026;50.560;17.852;2024-03-02T01:19:03;98850.53;;;9.69;100.00
21728;BME280;11026;50.560;17.852;2024-03-02T01:21:31;98851.47;;;9.68;100.00
21728;BME280;11026;50.560;17.852;2024-03-02T01:23:58;98853.25;;;9.67;100.00
21728;BME280;11026;50.560;17.852;2024-03-02T01:26:26;98853.78;;;9.56;100.00
21728;BME280;11026;50.560;17.852;2024-03-02T01:28:54;98853.09;;;9.53;100.00
21728;BME280;11026;50.560;17.852;2024-03-02T01:31:21;98856.28;;;9.59;100.00
21728;BME280;11026;50.560;17.852;2024-03-02T01:33:48;98852.56;;;9.64;100.00
21728;BME280;11026;50.560;17.852;2024-03-02T01:36:16;98854.56;;;9.76;100.00
21728;BME280;11026;50.560;17.852;2024-03-02T01:38:48;98855.66;;;9.37;100.00
21728;BME280;11026;50.560;17.852;2024-03-02T01:41:16;98849.38;;;9.40;100.00
21728;BME280;11026;50.560;17.852;2024-03-02T01:43:44;98847.75;;;9.54;100.00
21728;BME280;11026;50.560;17.852;2024-03-02T01:46:11;98853.63;;;9.42;100.00
21728;BME280;11026;50.560;17.852;2024-03-02T01:48:38;98850.22;;;9.40;100.00
21728;BME280;11026;50.560;17.852;2024-03-02T01:51:05;98840.59;;;9.39;100.00
21728;BME280;11026;50.560;17.852;2024-03-02T01:53:37;98844.78;;;9.43;100.00
21728;BME280;11026;50.560;17.852;2024-03-02T01:56:04;98849.38;;;9.40;100.00
21728;BME280;11026;50.560;17.852;2024-03-02T01:58:32;98842.06;;;9.45;100.00
21728;BME280;11026;50.560;17.852;2024-03-02T02:00:59;98843.31;;;9.55;100.00
21728;BME280;11026;50.560;17.852;2024-03-02T02:03:26;98842.00;;;9.64;100.00
21728;BME280;11026;50.560;17.852;2024-03-02T02:05:54;98850.16;;;9.59;100.00
21728;BME280;11026;50.560;17.852;2024-03-02T02:08:21;98843.84;;;9.61;100.00
21728;BME280;11026;50.560;17.852;2024-03-02T02:10:48;98836.84;;;9.60;100.00
21728;BME280;11026;50.560;17.852;2024-03-02T02:13:16;98841.44;;;9.57;100.00
21728;BME280;11026;50.560;17.852;2024-03-02T02:15:43;98842.16;;;9.43;100.00
21728;BME280;11026;50.560;17.852;2024-03-02T02:18:11;98836.16;;;9.40;100.00
21728;BME280;11026;50.560;17.852;2024-03-02T02:20:39;98840.19;;;9.29;100.00
21728;BME280;11026;50.560;17.852;2024-03-02T02:23:07;98835.16;;;9.25;100.00
21728;BME280;11026;50.560;17.852;2024-03-02T02:25:37;98837.69;;;9.26;100.00
21728;BME280;11026;50.560;17.852;2024-03-02T02:28:06;98839.81;;;9.20;100.00
21728;BME280;11026;50.560;17.852;2024-03-02T02:30:33;98835.47;;;9.19;100.00
21728;BME280;11026;50.560;17.852;2024-03-02T02:33:01;98836.38;;;9.18;100.00
21728;BME280;11026;50.560;17.852;2024-03-02T02:35:28;98840.31;;;9.09;100.00
21728;BME280;11026;50.560;17.852;2024-03-02T02:37:57;98845.59;;;9.09;100.00
21728;BME280;11026;50.560;17.852;2024-03-02T02:40:27;98836.22;;;9.03;100.00
21728;BME280;11026;50.560;17.852;2024-03-02T02:42:58;98840.84;;;8.98;100.00
21728;BME280;11026;50.560;17.852;2024-03-02T02:45:28;98848.75;;;8.98;100.00
21728;BME280;11026;50.560;17.852;2024-03-02T02:47:55;98842.84;;;8.93;100.00
21728;BME280;11026;50.560;17.852;2024-03-02T02:50:24;98843.00;;;8.90;100.00
21728;BME280;11026;50.560;17.852;2024-03-02T02:52:52;98843.94;;;8.89;100.00
21728;BME280;11026;50.560;17.852;2024-03-02T02:55:20;98842.09;;;8.91;100.00
21728;BME280;11026;50.560;17.852;2024-03-02T02:57:47;98847.50;;;8.88;100.00
21728;BME280;11026;50.560;17.852;2024-03-02T03:00:15;98846.56;;;8.89;100.00
21728;BME280;11026;50.560;17.852;2024-03-02T03:02:47;98851.75;;;8.91;100.00
21728;BME280;11026;50.560;17.852;2024-03-02T03:05:17;98844.72;;;8.91;100.00
21728;BME280;11026;50.560;17.852;2024-03-02T03:07:45;98842.94;;;8.92;100.00
21728;BME280;11026;50.560;17.852;2024-03-02T03:10:14;98831.44;;;8.93;100.00
21728;BME280;11026;50.560;17.852;2024-03-02T03:12:42;98841.00;;;8.95;100.00
21728;BME280;11026;50.560;17.852;2024-03-02T03:15:11;98838.50;;;8.92;100.00
21728;BME280;11026;50.560;17.852;2024-03-02T03:17:42;98835.66;;;8.97;100.00
21728;BME280;11026;50.560;17.852;2024-03-02T03:20:09;98833.81;;;8.99;100.00
21728;BME280;11026;50.560;17.852;2024-03-02T03:22:38;98835.41;;;9.01;100.00
21728;BME280;11026;50.560;17.852;2024-03-02T03:25:09;98833.09;;;8.95;100.00
21728;BME280;11026;50.560;17.852;2024-03-02T03:27:36;98825.81;;;9.00;100.00
21728;BME280;11026;50.560;17.852;2024-03-02T03:30:03;98826.09;;;8.94;100.00
21728;BME280;11026;50.560;17.852;2024-03-02T03:32:35;98840.06;;;8.96;100.00
21728;BME280;11026;50.560;17.852;2024-03-02T03:35:05;98833.28;;;8.91;100.00
21728;BME280;11026;50.560;17.852;2024-03-02T03:37:35;98823.28;;;8.80;100.00
21728;BME280;11026;50.560;17.852;2024-03-02T03:40:03;98829.63;;;8.76;100.00
21728;BME280;11026;50.560;17.852;2024-03-02T03:42:40;98833.03;;;8.78;100.00
21728;BME280;11026;50.560;17.852;2024-03-02T03:45:08;98827.69;;;8.79;100.00
21728;BME280;11026;50.560;17.852;2024-03-02T03:47:40;98826.50;;;8.68;100.00
21728;BME280;11026;50.560;17.852;2024-03-02T03:50:07;98829.63;;;8.76;100.00
21728;BME280;11026;50.560;17.852;2024-03-02T03:52:35;98826.69;;;8.63;100.00
21728;BME280;11026;50.560;17.852;2024-03-02T03:55:05;98834.41;;;8.68;100.00
21728;BME280;11026;50.560;17.852;2024-03-02T03:57:33;98839.03;;;8.62;100.00
21728;BME280;11026;50.560;17.852;2024-03-02T04:00:03;98827.28;;;8.51;100.00
21728;BME280;11026;50.560;17.852;2024-03-02T04:02:34;98840.31;;;8.54;100.00
21728;BME280;11026;50.560;17.852;2024-03-02T04:05:02;98836.97;;;8.50;100.00
21728;BME280;11026;50.560;17.852;2024-03-02T04:07:40;98840.81;;;8.43;100.00
21728;BME280;11026;50.560;17.852;2024-03-02T04:10:09;98845.44;;;8.38;100.00
21728;BME280;11026;50.560;17.852;2024-03-02T04:12:37;98842.06;;;8.34;100.00
21728;BME280;11026;50.560;17.852;2024-03-02T04:15:06;98843.75;;;8.37;100.00
21728;BME280;11026;50.560;17.852;2024-03-02T04:17:35;98848.25;;;8.33;100.00
21728;BME280;11026;50.560;17.852;2024-03-02T04:20:03;98848.91;;;8.20;100.00
21728;BME280;11026;50.560;17.852;2024-03-02T04:22:34;98847.88;;;8.22;100.00
21728;BME280;11026;50.560;17.852;2024-03-02T04:25:03;98857.69;;;8.19;100.00
21728;BME280;11026;50.560;17.852;2024-03-02T04:27:33;98857.44;;;8.25;100.00
21728;BME280;11026;50.560;17.852;2024-03-02T04:30:00;98855.75;;;8.24;100.00
21728;BME280;11026;50.560;17.852;2024-03-02T04:32:28;98856.13;;;8.14;100.00
21728;BME280;11026;50.560;17.852;2024-03-02T04:34:54;98859.44;;;8.20;100.00
21728;BME280;11026;50.560;17.852;2024-03-02T04:37:27;98860.41;;;8.17;100.00
21728;BME280;11026;50.560;17.852;2024-03-02T04:39:55;98862.81;;;8.03;100.00
21728;BME280;11026;50.560;17.852;2024-03-02T04:42:22;98878.56;;;8.04;100.00
21728;BME280;11026;50.560;17.852;2024-03-02T04:44:51;98872.34;;;8.05;100.00
21728;BME280;11026;50.560;17.852;2024-03-02T04:47:18;98873.34;;;8.03;100.00
21728;BME280;11026;50.560;17.852;2024-03-02T04:49:47;98876.97;;;8.00;100.00
21728;BME280;11026;50.560;17.852;2024-03-02T04:52:16;98874.47;;;7.97;100.00
21728;BME280;11026;50.560;17.852;2024-03-02T04:54:44;98880.59;;;7.98;100.00
21728;BME280;11026;50.560;17.852;2024-03-02T04:57:25;98876.19;;;7.98;100.00
21728;BME280;11026;50.560;17.852;2024-03-02T04:59:53;98879.03;;;7.94;100.00
21728;BME280;11026;50.560;17.852;2024-03-02T05:02:20;98876.19;;;7.98;100.00
21728;BME280;11026;50.560;17.852;2024-03-02T05:04:47;98871.03;;;7.95;100.00
21728;BME280;11026;50.560;17.852;2024-03-02T05:07:15;98868.69;;;7.89;100.00
21728;BME280;11026;50.560;17.852;2024-03-02T05:09:42;98868.81;;;7.86;100.00
21728;BME280;11026;50.560;17.852;2024-03-02T05:12:10;98869.63;;;7.88;100.00
21728;BME280;11026;50.560;17.852;2024-03-02T05:14:51;98875.78;;;7.87;100.00
21728;BME280;11026;50.560;17.852;2024-03-02T05:17:18;98869.06;;;7.80;100.00
21728;BME280;11026;50.560;17.852;2024-03-02T05:19:46;98876.00;;;7.82;100.00
21728;BME280;11026;50.560;17.852;2024-03-02T05:22:21;98880.59;;;7.77;100.00
21728;BME280;11026;50.560;17.852;2024-03-02T05:24:48;98885.59;;;7.83;100.00
21728;BME280;11026;50.560;17.852;2024-03-02T05:27:16;98883.75;;;7.85;100.00
21728;BME280;11026;50.560;17.852;2024-03-02T05:29:43;98891.00;;;7.80;100.00
21728;BME280;11026;50.560;17.852;2024-03-02T05:32:11;98885.66;;;7.82;100.00
21728;BME280;11026;50.560;17.852;2024-03-02T05:34:38;98891.25;;;7.74;100.00
21728;BME280;11026;50.560;17.852;2024-03-02T05:37:05;98892.22;;;7.72;100.00
21728;BME280;11026;50.560;17.852;2024-03-02T05:39:34;98892.91;;;7.77;100.00
21728;BME280;11026;50.560;17.852;2024-03-02T05:42:02;98897.56;;;7.70;100.00
21728;BME280;11026;50.560;17.852;2024-03-02T05:44:30;98894.81;;;7.73;100.00
21728;BME280;11026;50.560;17.852;2024-03-02T05:46:57;98897.50;;;7.72;100.00
21728;BME280;11026;50.560;17.852;2024-03-02T05:49:25;98898.19;;;7.77;100.00
21728;BME280;11026;50.560;17.852;2024-03-02T05:51:51;98893.78;;;7.77;100.00
21728;BME280;11026;50.560;17.852;2024-03-02T05:54:19;98902.91;;;7.69;100.00
21728;BME280;11026;50.560;17.852;2024-03-02T05:56:46;98898.31;;;7.74;100.00
21728;BME280;11026;50.560;17.852;2024-03-02T05:59:14;98898.03;;;7.80;100.00
21728;BME280;11026;50.560;17.852;2024-03-02T06:01:46;98902.66;;;7.75;100.00
21728;BME280;11026;50.560;17.852;2024-03-02T06:04:14;98908.50;;;7.81;100.00
21728;BME280;11026;50.560;17.852;2024-03-02T06:06:41;98909.38;;;7.82;100.00
21728;BME280;11026;50.560;17.852;2024-03-02T06:09:08;98908.19;;;7.89;100.00
21728;BME280;11026;50.560;17.852;2024-03-02T06:11:36;98906.59;;;7.85;100.00
21728;BME280;11026;50.560;17.852;2024-03-02T06:14:05;98899.69;;;7.82;100.00
21728;BME280;11026;50.560;17.852;2024-03-02T06:16:33;98905.59;;;7.87;100.00
21728;BME280;11026;50.560;17.852;2024-03-02T06:19:02;98908.19;;;7.89;100.00
21728;BME280;11026;50.560;17.852;2024-03-02T06:21:29;98911.59;;;7.91;100.00
21728;BME280;11026;50.560;17.852;2024-03-02T06:23:57;98908.19;;;7.89;100.00
21728;BME280;11026;50.560;17.852;2024-03-02T06:26:24;98903.31;;;8.00;100.00
21728;BME280;11026;50.560;17.852;2024-03-02T06:28:54;98910.94;;;8.06;100.00
21728;BME280;11026;50.560;17.852;2024-03-02T06:31:21;98900.16;;;8.12;100.00
21728;BME280;11026;50.560;17.852;2024-03-02T06:33:50;98901.97;;;8.10;100.00
21728;BME280;11026;50.560;17.852;2024-03-02T06:36:18;98909.41;;;8.21;100.00
21728;BME280;11026;50.560;17.852;2024-03-02T06:38:45;98913.53;;;8.27;100.00
21728;BME280;11026;50.560;17.852;2024-03-02T06:41:13;98918.25;;;8.20;100.00
21728;BME280;11026;50.560;17.852;2024-03-02T06:43:40;98922.84;;;8.35;100.00
21728;BME280;11026;50.560;17.852;2024-03-02T06:46:07;98932.50;;;8.35;100.00
21728;BME280;11026;50.560;17.852;2024-03-02T06:48:37;98928.38;;;8.29;100.00
21728;BME280;11026;50.560;17.852;2024-03-02T06:51:04;98932.19;;;8.43;100.00
21728;BME280;11026;50.560;17.852;2024-03-02T06:53:33;98930.16;;;8.49;100.00
21728;BME280;11026;50.560;17.852;2024-03-02T06:56:01;98921.19;;;8.53;100.00
21728;BME280;11026;50.560;17.852;2024-03-02T06:58:28;98926.59;;;8.50;100.00
21728;BME280;11026;50.560;17.852;2024-03-02T07:00:55;98918.28;;;8.59;100.00
21728;BME280;11026;50.560;17.852;2024-03-02T07:03:22;98928.75;;;8.61;100.00
21728;BME280;11026;50.560;17.852;2024-03-02T07:05:50;98934.72;;;8.65;100.00
21728;BME280;11026;50.560;17.852;2024-03-02T07:08:19;98941.56;;;8.69;100.00
21728;BME280;11026;50.560;17.852;2024-03-02T07:10:46;98938.00;;;8.70;100.00
21728;BME280;11026;50.560;17.852;2024-03-02T07:13:26;98939.19;;;8.83;100.00
21728;BME280;11026;50.560;17.852;2024-03-02T07:16:03;98942.59;;;8.85;100.00
21728;BME280;11026;50.560;17.852;2024-03-02T07:18:31;98951.44;;;8.84;100.00
21728;BME280;11026;50.560;17.852;2024-03-02T07:21:01;98946.06;;;8.85;100.00
21728;BME280;11026;50.560;17.852;2024-03-02T07:23:28;98948.50;;;8.90;100.00
21728;BME280;11026;50.560;17.852;2024-03-02T07:25:58;98950.72;;;8.99;100.00
21728;BME280;11026;50.560;17.852;2024-03-02T07:28:30;98952.13;;;9.06;100.00
21728;BME280;11026;50.560;17.852;2024-03-02T07:31:07;98954.25;;;9.17;100.00
21728;BME280;11026;50.560;17.852;2024-03-02T07:33:36;98959.53;;;9.36;100.00
21728;BME280;11026;50.560;17.852;2024-03-02T07:36:05;98958.94;;;9.48;100.00
21728;BME280;11026;50.560;17.852;2024-03-02T07:38:32;98957.56;;;9.58;100.00
21728;BME280;11026;50.560;17.852;2024-03-02T07:41:01;98965.63;;;9.73;100.00
21728;BME280;11026;50.560;17.852;2024-03-02T07:43:29;98965.13;;;9.83;100.00
21728;BME280;11026;50.560;17.852;2024-03-02T07:45:56;98970.88;;;9.92;100.00
21728;BME280;11026;50.560;17.852;2024-03-02T07:48:24;98975.28;;;10.08;100.00
21728;BME280;11026;50.560;17.852;2024-03-02T07:50:52;98972.13;;;10.19;100.00
21728;BME280;11026;50.560;17.852;2024-03-02T07:53:19;98971.13;;;10.22;100.00
21728;BME280;11026;50.560;17.852;2024-03-02T07:55:46;98972.97;;;10.20;100.00
21728;BME280;11026;50.560;17.852;2024-03-02T07:58:14;98966.38;;;10.28;100.00
21728;BME280;11026;50.560;17.852;2024-03-02T08:00:41;98963.28;;;10.38;100.00
21728;BME280;11026;50.560;17.852;2024-03-02T08:03:11;98969.03;;;10.28;100.00
21728;BME280;11026;50.560;17.852;2024-03-02T08:05:39;98969.31;;;10.40;100.00
21728;BME280;11026;50.560;17.852;2024-03-02T08:08:06;98970.31;;;10.37;100.00
21728;BME280;11026;50.560;17.852;2024-03-02T08:10:33;98980.91;;;10.02;100.00
21728;BME280;11026;50.560;17.852;2024-03-02T08:13:00;98981.63;;;10.06;100.00
21728;BME280;11026;50.560;17.852;2024-03-02T08:15:28;98977.78;;;10.12;100.00
21728;BME280;11026;50.560;17.852;2024-03-02T08:17:55;98980.28;;;10.15;100.00
21728;BME280;11026;50.560;17.852;2024-03-02T08:20:25;98978.59;;;10.14;100.00
21728;BME280;11026;50.560;17.852;2024-03-02T08:22:54;98976.84;;;10.13;100.00
21728;BME280;11026;50.560;17.852;2024-03-02T08:25:24;98981.53;;;10.25;100.00
21728;BME280;11026;50.560;17.852;2024-03-02T08:27:54;98983.34;;;10.42;100.00
21728;BME280;11026;50.560;17.852;2024-03-02T08:30:21;98986.72;;;10.44;100.00
21728;BME280;11026;50.560;17.852;2024-03-02T08:32:51;98977.47;;;10.52;100.00
21728;BME280;11026;50.560;17.852;2024-03-02T08:35:19;98980.94;;;10.53;100.00
21728;BME280;11026;50.560;17.852;2024-03-02T08:37:47;98986.19;;;10.37;100.00
21728;BME280;11026;50.560;17.852;2024-03-02T08:40:16;98985.28;;;10.38;100.00
21728;BME280;11026;50.560;17.852;2024-03-02T08:42:45;98989.53;;;10.23;100.00
21728;BME280;11026;50.560;17.852;2024-03-02T08:45:13;98987.81;;;10.22;100.00
21728;BME280;11026;50.560;17.852;2024-03-02T08:47:42;98980.22;;;10.33;100.00
21728;BME280;11026;50.560;17.852;2024-03-02T08:50:11;98980.75;;;10.40;100.00
21728;BME280;11026;50.560;17.852;2024-03-02T08:52:38;98984.78;;;10.47;100.00
21728;BME280;11026;50.560;17.852;2024-03-02T08:55:07;98978.56;;;10.48;100.00
21728;BME280;11026;50.560;17.852;2024-03-02T08:57:35;98971.06;;;10.56;100.00
21728;BME280;11026;50.560;17.852;2024-03-02T09:00:09;98972.75;;;10.75;100.00
21728;BME280;11026;50.560;17.852;2024-03-02T09:02:44;98965.84;;;10.88;100.00
21728;BME280;11026;50.560;17.852;2024-03-02T09:05:12;98966.72;;;11.04;100.00
21728;BME280;11026;50.560;17.852;2024-03-02T09:07:39;98972.91;;;11.21;100.00
21728;BME280;11026;50.560;17.852;2024-03-02T09:10:09;98972.22;;;11.33;100.00
21728;BME280;11026;50.560;17.852;2024-03-02T09:12:37;98971.00;;;11.54;100.00
21728;BME280;11026;50.560;17.852;2024-03-02T09:15:05;98975.09;;;11.76;100.00
21728;BME280;11026;50.560;17.852;2024-03-02T09:17:36;98968.56;;;11.81;100.00
21728;BME280;11026;50.560;17.852;2024-03-02T09:20:04;98971.78;;;12.02;100.00
21728;BME280;11026;50.560;17.852;2024-03-02T09:22:32;98965.41;;;12.21;100.00
21728;BME280;11026;50.560;17.852;2024-03-02T09:25:00;98968.28;;;12.32;100.00
21728;BME280;11026;50.560;17.852;2024-03-02T09:27:27;98974.84;;;12.11;100.00
21728;BME280;11026;50.560;17.852;2024-03-02T09:29:55;98962.25;;;12.14;100.00
21728;BME280;11026;50.560;17.852;2024-03-02T09:32:22;98963.44;;;12.39;100.00
21728;BME280;11026;50.560;17.852;2024-03-02T09:34:50;98965.72;;;12.45;100.00
21728;BME280;11026;50.560;17.852;2024-03-02T09:37:17;98968.47;;;12.58;100.00
21728;BME280;11026;50.560;17.852;2024-03-02T09:39:45;98970.56;;;12.67;100.00
21728;BME280;11026;50.560;17.852;2024-03-02T09:42:13;98960.53;;;12.58;100.00
21728;BME280;11026;50.560;17.852;2024-03-02T09:44:43;98967.06;;;12.52;100.00
21728;BME280;11026;50.560;17.852;2024-03-02T09:47:11;98967.16;;;12.50;100.00
21728;BME280;11026;50.560;17.852;2024-03-02T09:49:40;98969.63;;;12.68;100.00
21728;BME280;11026;50.560;17.852;2024-03-02T09:52:09;98965.28;;;12.81;100.00
21728;BME280;11026;50.560;17.852;2024-03-02T09:54:39;98958.72;;;13.01;100.00
21728;BME280;11026;50.560;17.852;2024-03-02T09:57:10;98953.59;;;12.98;99.06
21728;BME280;11026;50.560;17.852;2024-03-02T09:59:37;98956.84;;;12.89;98.61
21728;BME280;11026;50.560;17.852;2024-03-02T10:02:05;98946.50;;;12.84;98.65
21728;BME280;11026;50.560;17.852;2024-03-02T10:04:34;98949.91;;;12.86;97.01
21728;BME280;11026;50.560;17.852;2024-03-02T10:07:16;98955.41;;;12.97;97.56
21728;BME280;11026;50.560;17.852;2024-03-02T10:09:48;98946.88;;;12.92;96.03
21728;BME280;11026;50.560;17.852;2024-03-02T10:12:16;98940.25;;;12.85;96.30
21728;BME280;11026;50.560;17.852;2024-03-02T10:14:45;98950.31;;;12.80;96.10
21728;BME280;11026;50.560;17.852;2024-03-02T10:17:13;98942.16;;;12.83;95.81
21728;BME280;11026;50.560;17.852;2024-03-02T10:19:45;98946.13;;;12.76;95.18
21728;BME280;11026;50.560;17.852;2024-03-02T10:22:13;98955.31;;;12.85;96.27
21728;BME280;11026;50.560;17.852;2024-03-02T10:24:44;98952.56;;;12.86;96.04
21728;BME280;11026;50.560;17.852;2024-03-02T10:27:17;98954.66;;;12.81;95.32
21728;BME280;11026;50.560;17.852;2024-03-02T10:29:49;98955.22;;;12.86;96.21
21728;BME280;11026;50.560;17.852;2024-03-02T10:32:17;98952.38;;;12.89;96.84
21728;BME280;11026;50.560;17.852;2024-03-02T10:34:46;98950.63;;;13.02;99.33
21728;BME280;11026;50.560;17.852;2024-03-02T10:37:15;98954.13;;;13.17;98.39
21728;BME280;11026;50.560;17.852;2024-03-02T10:39:46;98952.72;;;13.12;95.94
21728;BME280;11026;50.560;17.852;2024-03-02T10:42:14;98949.53;;;13.07;96.77
21728;BME280;11026;50.560;17.852;2024-03-02T10:44:42;98958.69;;;13.15;94.67
21728;BME280;11026;50.560;17.852;2024-03-02T10:47:12;98957.28;;;13.10;96.78
21728;BME280;11026;50.560;17.852;2024-03-02T10:49:42;98958.22;;;13.09;94.02
21728;BME280;11026;50.560;17.852;2024-03-02T10:52:11;98964.31;;;13.11;96.10
21728;BME280;11026;50.560;17.852;2024-03-02T10:54:44;98964.84;;;13.16;97.41
21728;BME280;11026;50.560;17.852;2024-03-02T10:57:14;98960.28;;;13.18;97.56
21728;BME280;11026;50.560;17.852;2024-03-02T10:59:52;98968.16;;;13.34;99.61
21728;BME280;11026;50.560;17.852;2024-03-02T11:02:22;98966.34;;;13.34;98.76
21728;BME280;11026;50.560;17.852;2024-03-02T11:04:54;98969.66;;;13.38;97.54
21728;BME280;11026;50.560;17.852;2024-03-02T11:07:22;98968.47;;;13.29;98.83
21728;BME280;11026;50.560;17.852;2024-03-02T11:10:01;98965.16;;;13.25;98.52
21728;BME280;11026;50.560;17.852;2024-03-02T11:12:39;98972.38;;;13.23;98.16
21728;BME280;11026;50.560;17.852;2024-03-02T11:15:11;98971.13;;;13.29;100.00
21728;BME280;11026;50.560;17.852;2024-03-02T11:17:44;98977.09;;;13.33;100.00
21728;BME280;11026;50.560;17.852;2024-03-02T11:20:13;98970.91;;;13.46;100.00
21728;BME280;11026;50.560;17.852;2024-03-02T11:22:42;98968.88;;;13.50;100.00
21728;BME280;11026;50.560;17.852;2024-03-02T11:25:24;98970.97;;;13.45;100.00
21728;BME280;11026;50.560;17.852;2024-03-02T11:33:13;98956.53;;;13.08;100.00
21728;BME280;11026;50.560;17.852;2024-03-02T11:35:45;98952.44;;;13.02;100.00
21728;BME280;11026;50.560;17.852;2024-03-02T11:38:20;98946.59;;;12.97;100.00
21728;BME280;11026;50.560;17.852;2024-03-02T11:40:47;98944.59;;;13.00;100.00
21728;BME280;11026;50.560;17.852;2024-03-02T11:43:15;98944.31;;;12.91;100.00
21728;BME280;11026;50.560;17.852;2024-03-02T11:45:43;98946.13;;;12.76;100.00
21728;BME280;11026;50.560;17.852;2024-03-02T11:48:14;98942.34;;;12.80;100.00
21728;BME280;11026;50.560;17.852;2024-03-02T11:50:46;98943.06;;;12.96;100.00
21728;BME280;11026;50.560;17.852;2024-03-02T11:53:14;98937.38;;;13.02;100.00
21728;BME280;11026;50.560;17.852;2024-03-02T11:55:44;98944.22;;;13.07;100.00
21728;BME280;11026;50.560;17.852;2024-03-02T11:58:18;98937.38;;;13.02;100.00
21728;BME280;11026;50.560;17.852;2024-03-02T12:00:51;98939.34;;;13.13;98.57
21728;BME280;11026;50.560;17.852;2024-03-02T12:03:21;98933.97;;;13.15;100.00
21728;BME280;11026;50.560;17.852;2024-03-02T12:05:52;98933.19;;;13.27;99.39
21728;BME280;11026;50.560;17.852;2024-03-02T12:08:22;98934.28;;;13.37;95.65
21728;BME280;11026;50.560;17.852;2024-03-02T12:11:00;98933.56;;;13.35;95.39
21728;BME280;11026;50.560;17.852;2024-03-02T12:13:31;98938.44;;;13.41;97.13
21728;BME280;11026;50.560;17.852;2024-03-02T12:15:58;98927.25;;;13.50;94.51
21728;BME280;11026;50.560;17.852;2024-03-02T12:18:26;98926.94;;;13.55;91.97
21728;BME280;11026;50.560;17.852;2024-03-02T12:20:54;98932.06;;;13.58;91.62
21728;BME280;11026;50.560;17.852;2024-03-02T12:23:26;98919.19;;;13.65;91.32
21728;BME280;11026;50.560;17.852;2024-03-02T12:25:53;98928.66;;;13.69;90.21
21728;BME280;11026;50.560;17.852;2024-03-02T12:28:22;98928.50;;;13.58;90.77
21728;BME280;11026;50.560;17.852;2024-03-02T12:30:49;98918.22;;;13.66;90.72
21728;BME280;11026;50.560;17.852;2024-03-02T12:33:17;98919.66;;;13.71;89.98
21728;BME280;11026;50.560;17.852;2024-03-02T12:35:44;98920.31;;;13.75;89.94
21728;BME280;11026;50.560;17.852;2024-03-02T12:38:12;98917.22;;;13.81;91.14
21728;BME280;11026;50.560;17.852;2024-03-02T12:40:40;98927.97;;;13.92;88.87
21728;BME280;11026;50.560;17.852;2024-03-02T12:43:07;98927.91;;;13.94;88.16
21728;BME280;11026;50.560;17.852;2024-03-02T12:45:34;98925.25;;;13.94;86.14
21728;BME280;11026;50.560;17.852;2024-03-02T12:48:04;98919.34;;;13.76;84.09
21728;BME280;11026;50.560;17.852;2024-03-02T12:50:33;98915.13;;;13.86;86.97
21728;BME280;11026;50.560;17.852;2024-03-02T12:53:00;98918.94;;;13.82;85.01
21728;BME280;11026;50.560;17.852;2024-03-02T12:55:28;98920.31;;;13.75;85.49
21728;BME280;11026;50.560;17.852;2024-03-02T12:57:56;98920.97;;;13.91;87.16
21728;BME280;11026;50.560;17.852;2024-03-02T13:00:26;98924.78;;;13.87;86.30
21728;BME280;11026;50.560;17.852;2024-03-02T13:02:54;98915.03;;;14.13;87.69
21728;BME280;11026;50.560;17.852;2024-03-02T13:05:30;98919.75;;;14.35;88.58